createdAt,value
2022-10-30T00:00:06.136Z,1013.78
2022-10-30T00:01:06.155Z,1013.73
2022-10-30T00:02:06.276Z,1013.73
2022-10-30T00:03:06.265Z,1013.73
2022-10-30T00:04:06.208Z,1013.71
2022-10-30T00:05:06.223Z,1013.73
2022-10-30T00:06:06.388Z,1013.70
2022-10-30T00:07:06.259Z,1013.75
2022-10-30T00:08:06.336Z,1013.74
2022-10-30T00:09:06.297Z,1013.72
2022-10-30T00:10:06.310Z,1013.71
2022-10-30T00:11:06.333Z,1013.70
2022-10-30T00:12:06.346Z,1013.71
2022-10-30T00:13:06.368Z,1013.70
2022-10-30T00:14:06.382Z,1013.69
2022-10-30T00:15:06.399Z,1013.67
2022-10-30T00:16:06.424Z,1013.68
2022-10-30T00:17:06.440Z,1013.64
2022-10-30T00:18:06.452Z,1013.64
2022-10-30T00:19:06.472Z,1013.63
2022-10-30T00:20:06.489Z,1013.62
2022-10-30T00:21:06.510Z,1013.60
2022-10-30T00:22:45.641Z,1013.59
2022-10-30T00:23:45.662Z,1013.56
2022-10-30T00:24:45.687Z,1013.56
2022-10-30T00:25:45.695Z,1013.54
2022-10-30T00:26:45.714Z,1013.53
2022-10-30T00:27:45.728Z,1013.55
2022-10-30T00:28:45.748Z,1013.55
2022-10-30T00:29:45.763Z,1013.49
2022-10-30T00:30:45.781Z,1013.54
2022-10-30T00:31:45.800Z,1013.49
2022-10-30T00:32:45.815Z,1013.49
2022-10-30T00:33:45.833Z,1013.54
2022-10-30T00:34:45.849Z,1013.53
2022-10-30T00:36:45.885Z,1013.57
2022-10-30T00:37:45.903Z,1013.60
2022-10-30T00:38:45.923Z,1013.62
2022-10-30T00:39:45.937Z,1013.59
2022-10-30T00:40:45.953Z,1013.57
2022-10-30T00:41:45.974Z,1013.57
2022-10-30T00:42:45.989Z,1013.57
2022-10-30T00:43:46.005Z,1013.52
2022-10-30T00:44:46.022Z,1013.49
2022-10-30T00:45:46.042Z,1013.49
2022-10-30T00:46:46.055Z,1013.46
2022-10-30T00:47:46.075Z,1013.46
2022-10-30T00:48:46.092Z,1013.46
2022-10-30T00:49:46.108Z,1013.42
2022-10-30T00:50:46.129Z,1013.44
2022-10-30T00:51:46.141Z,1013.40
2022-10-30T00:52:46.159Z,1013.36
2022-10-30T00:53:46.176Z,1013.34
2022-10-30T00:54:46.194Z,1013.37
2022-10-30T00:55:46.209Z,1013.34
2022-10-30T00:56:46.226Z,1013.26
2022-10-30T00:57:46.244Z,1013.26
2022-10-30T00:58:46.262Z,1013.27
2022-10-30T00:59:46.279Z,1013.21
2022-10-30T01:00:46.297Z,1013.24
2022-10-30T01:01:46.470Z,1013.26
2022-10-30T01:02:46.377Z,1013.27
2022-10-30T01:03:46.345Z,1013.23
2022-10-30T01:04:46.364Z,1013.28
2022-10-30T01:05:46.380Z,1013.28
2022-10-30T01:06:46.403Z,1013.25
2022-10-30T01:07:46.414Z,1013.26
2022-10-30T01:08:46.522Z,1013.28
2022-10-30T01:09:46.447Z,1013.24
2022-10-30T01:10:46.466Z,1013.23
2022-10-30T01:11:46.480Z,1013.24
2022-10-30T01:12:46.500Z,1013.24
2022-10-30T01:13:46.519Z,1013.25
2022-10-30T01:14:46.538Z,1013.24
2022-10-30T01:15:46.552Z,1013.24
2022-10-30T01:16:46.565Z,1013.29
2022-10-30T01:17:46.584Z,1013.32
2022-10-30T01:18:46.600Z,1013.30
2022-10-30T01:19:46.622Z,1013.30
2022-10-30T01:20:46.633Z,1013.26
2022-10-30T01:21:46.649Z,1013.26
2022-10-30T01:22:46.673Z,1013.29
2022-10-30T01:23:46.682Z,1013.21
2022-10-30T01:24:46.704Z,1013.22
2022-10-30T01:25:46.719Z,1013.19
2022-10-30T01:26:46.734Z,1013.20
2022-10-30T01:27:46.751Z,1013.18
2022-10-30T01:28:46.775Z,1013.15
2022-10-30T01:29:46.784Z,1013.18
2022-10-30T01:30:46.803Z,1013.14
2022-10-30T01:31:46.818Z,1013.18
2022-10-30T01:32:46.839Z,1013.18
2022-10-30T01:33:46.853Z,1013.19
2022-10-30T01:34:46.875Z,1013.21
2022-10-30T01:35:46.886Z,1013.24
2022-10-30T01:36:46.916Z,1013.25
2022-10-30T01:37:46.921Z,1013.26
2022-10-30T01:38:46.936Z,1013.30
2022-10-30T01:39:46.953Z,1013.28
2022-10-30T01:40:46.969Z,1013.27
2022-10-30T01:41:46.989Z,1013.25
2022-10-30T01:42:47.004Z,1013.26
2022-10-30T01:43:47.018Z,1013.24
2022-10-30T01:44:47.037Z,1013.18
2022-10-30T01:45:47.056Z,1013.21
2022-10-30T01:46:47.071Z,1013.19
2022-10-30T01:47:47.086Z,1013.14
2022-10-30T01:48:47.103Z,1013.13
2022-10-30T01:49:47.120Z,1013.10
2022-10-30T01:50:47.136Z,1013.02
2022-10-30T01:51:47.153Z,1013.02
2022-10-30T01:52:47.170Z,1013.03
2022-10-30T01:53:47.191Z,1013.01
2022-10-30T01:54:47.202Z,1013.00
2022-10-30T01:55:47.217Z,1012.96
2022-10-30T01:56:47.234Z,1012.93
2022-10-30T01:57:47.252Z,1012.92
2022-10-30T01:58:47.271Z,1012.93
2022-10-30T01:59:47.287Z,1012.99
2022-10-30T02:00:47.300Z,1012.95
2022-10-30T02:01:47.519Z,1012.97
2022-10-30T02:02:47.520Z,1012.99
2022-10-30T02:03:47.351Z,1012.97
2022-10-30T02:04:47.373Z,1012.98
2022-10-30T02:05:47.387Z,1013.00
2022-10-30T02:06:47.400Z,1012.98
2022-10-30T02:07:47.416Z,1012.99
2022-10-30T02:08:47.437Z,1013.00
2022-10-30T02:09:47.450Z,1013.00
2022-10-30T02:10:47.469Z,1012.98
2022-10-30T02:11:47.482Z,1013.02
2022-10-30T02:12:47.502Z,1012.99
2022-10-30T02:13:47.518Z,1013.02
2022-10-30T02:14:47.541Z,1012.95
2022-10-30T02:15:47.555Z,1012.95
2022-10-30T02:16:47.567Z,1012.97
2022-10-30T02:17:47.589Z,1013.01
2022-10-30T02:18:47.617Z,1012.96
2022-10-30T02:19:47.622Z,1012.92
2022-10-30T02:20:47.631Z,1012.91
2022-10-30T02:21:47.653Z,1012.93
2022-10-30T02:22:47.746Z,1012.96
2022-10-30T02:23:47.681Z,1012.95
2022-10-30T02:24:47.701Z,1012.95
2022-10-30T02:25:47.718Z,1012.86
2022-10-30T02:26:47.731Z,1012.86
2022-10-30T02:27:47.747Z,1012.83
2022-10-30T02:28:47.764Z,1012.83
2022-10-30T02:29:47.779Z,1012.84
2022-10-30T02:30:47.797Z,1012.83
2022-10-30T02:31:47.811Z,1012.89
2022-10-30T02:32:47.827Z,1012.86
2022-10-30T02:33:47.853Z,1012.88
2022-10-30T02:34:47.860Z,1012.87
2022-10-30T02:35:47.880Z,1012.88
2022-10-30T02:36:47.900Z,1012.87
2022-10-30T02:37:47.909Z,1012.87
2022-10-30T02:38:47.930Z,1012.83
2022-10-30T02:39:47.942Z,1012.83
2022-10-30T02:40:47.960Z,1012.80
2022-10-30T02:41:47.975Z,1012.81
2022-10-30T02:42:47.993Z,1012.82
2022-10-30T02:43:48.009Z,1012.82
2022-10-30T02:44:48.025Z,1012.81
2022-10-30T02:45:48.042Z,1012.75
2022-10-30T02:46:48.067Z,1012.81
2022-10-30T02:47:48.088Z,1012.84
2022-10-30T02:48:48.090Z,1012.84
2022-10-30T02:49:48.107Z,1012.82
2022-10-30T02:50:48.121Z,1012.79
2022-10-30T02:51:48.138Z,1012.84
2022-10-30T02:52:48.156Z,1012.86
2022-10-30T02:53:48.170Z,1012.81
2022-10-30T02:54:48.189Z,1012.87
2022-10-30T02:55:48.207Z,1012.85
2022-10-30T02:56:48.220Z,1012.86
2022-10-30T02:57:48.236Z,1012.82
2022-10-30T02:58:48.254Z,1012.80
2022-10-30T02:59:48.270Z,1012.78
2022-10-30T03:00:48.414Z,1012.76
2022-10-30T03:01:48.397Z,1012.76
2022-10-30T03:02:48.341Z,1012.77
2022-10-30T03:03:48.335Z,1012.77
2022-10-30T03:04:48.350Z,1012.79
2022-10-30T03:05:48.370Z,1012.79
2022-10-30T03:06:48.384Z,1012.83
2022-10-30T03:07:48.405Z,1012.83
2022-10-30T03:08:48.415Z,1012.87
2022-10-30T03:09:48.433Z,1012.86
2022-10-30T03:10:48.450Z,1012.91
2022-10-30T03:11:48.465Z,1012.87
2022-10-30T03:12:48.483Z,1012.90
2022-10-30T03:13:48.496Z,1012.89
2022-10-30T03:14:48.515Z,1012.91
2022-10-30T03:15:48.530Z,1012.96
2022-10-30T03:16:48.547Z,1012.95
2022-10-30T03:17:48.562Z,1012.94
2022-10-30T03:18:48.580Z,1012.93
2022-10-30T03:19:48.593Z,1012.93
2022-10-30T03:20:48.611Z,1012.97
2022-10-30T03:21:48.626Z,1012.91
2022-10-30T03:22:48.644Z,1012.94
2022-10-30T03:23:48.659Z,1012.97
2022-10-30T03:24:48.676Z,1012.98
2022-10-30T03:25:48.692Z,1012.98
2022-10-30T03:26:48.710Z,1012.94
2022-10-30T03:27:48.724Z,1012.96
2022-10-30T03:28:48.742Z,1012.97
2022-10-30T03:29:48.758Z,1012.99
2022-10-30T03:30:48.774Z,1013.01
2022-10-30T03:31:48.789Z,1012.99
2022-10-30T03:32:48.805Z,1012.95
2022-10-30T03:33:48.823Z,1012.95
2022-10-30T03:34:48.840Z,1012.88
2022-10-30T03:35:48.856Z,1012.82
2022-10-30T03:36:48.871Z,1012.81
2022-10-30T03:37:48.938Z,1012.73
2022-10-30T03:38:48.906Z,1012.67
2022-10-30T03:39:48.925Z,1012.62
2022-10-30T03:40:48.938Z,1012.62
2022-10-30T03:41:48.957Z,1012.61
2022-10-30T03:42:48.970Z,1012.58
2022-10-30T03:43:48.986Z,1012.59
2022-10-30T03:44:49.006Z,1012.57
2022-10-30T03:45:49.018Z,1012.55
2022-10-30T03:46:49.035Z,1012.49
2022-10-30T03:47:49.058Z,1012.43
2022-10-30T03:48:49.078Z,1012.42
2022-10-30T03:49:49.087Z,1012.40
2022-10-30T03:50:49.102Z,1012.34
2022-10-30T03:51:49.118Z,1012.33
2022-10-30T03:52:49.136Z,1012.32
2022-10-30T03:53:49.150Z,1012.29
2022-10-30T03:54:49.168Z,1012.27
2022-10-30T03:55:49.183Z,1012.28
2022-10-30T03:56:49.203Z,1012.34
2022-10-30T03:57:49.223Z,1012.30
2022-10-30T03:58:49.234Z,1012.26
2022-10-30T03:59:49.248Z,1012.28
2022-10-30T04:00:49.264Z,1012.22
2022-10-30T04:01:49.413Z,1012.17
2022-10-30T04:02:49.298Z,1012.17
2022-10-30T04:03:49.315Z,1012.14
2022-10-30T04:04:49.331Z,1012.16
2022-10-30T04:05:49.347Z,1012.21
2022-10-30T04:06:49.365Z,1012.33
2022-10-30T04:07:49.380Z,1012.36
2022-10-30T04:08:49.400Z,1012.47
2022-10-30T04:09:49.415Z,1012.54
2022-10-30T04:10:49.496Z,1012.63
2022-10-30T04:11:49.450Z,1012.70
2022-10-30T04:12:49.478Z,1012.63
2022-10-30T04:13:49.488Z,1012.59
2022-10-30T04:14:49.496Z,1012.57
2022-10-30T04:15:54.209Z,1012.55
2022-10-30T04:16:49.550Z,1012.43
2022-10-30T04:17:49.553Z,1012.40
2022-10-30T04:18:49.563Z,1012.38
2022-10-30T04:19:49.580Z,1012.36
2022-10-30T04:20:49.595Z,1012.45
2022-10-30T04:21:49.615Z,1012.48
2022-10-30T04:22:49.632Z,1012.49
2022-10-30T04:23:49.646Z,1012.51
2022-10-30T04:24:49.665Z,1012.47
2022-10-30T04:25:49.681Z,1012.49
2022-10-30T04:26:49.697Z,1012.53
2022-10-30T04:27:49.711Z,1012.52
2022-10-30T04:28:49.727Z,1012.49
2022-10-30T04:29:49.744Z,1012.49
2022-10-30T04:30:49.761Z,1012.47
2022-10-30T04:31:49.777Z,1012.48
2022-10-30T04:32:49.817Z,1012.50
2022-10-30T04:33:49.811Z,1012.54
2022-10-30T04:34:49.827Z,1012.59
2022-10-30T04:35:49.846Z,1012.72
2022-10-30T04:36:49.862Z,1012.80
2022-10-30T04:37:49.877Z,1012.84
2022-10-30T04:38:49.894Z,1012.83
2022-10-30T04:39:49.910Z,1012.83
2022-10-30T04:40:49.929Z,1012.83
2022-10-30T04:41:49.958Z,1012.80
2022-10-30T04:42:49.961Z,1012.77
2022-10-30T04:43:49.978Z,1012.77
2022-10-30T04:44:49.995Z,1012.76
2022-10-30T04:45:50.011Z,1012.68
2022-10-30T04:46:50.028Z,1012.62
2022-10-30T04:47:50.043Z,1012.55
2022-10-30T04:48:50.060Z,1012.58
2022-10-30T04:49:50.078Z,1012.63
2022-10-30T04:50:50.095Z,1012.74
2022-10-30T04:51:50.115Z,1012.82
2022-10-30T04:52:50.133Z,1012.83
2022-10-30T04:53:50.145Z,1012.73
2022-10-30T04:54:50.164Z,1012.75
2022-10-30T04:55:50.176Z,1012.78
2022-10-30T04:56:50.193Z,1012.77
2022-10-30T04:57:50.210Z,1012.78
2022-10-30T04:58:50.227Z,1012.77
2022-10-30T04:59:50.243Z,1012.76
2022-10-30T05:00:50.263Z,1012.72
2022-10-30T05:01:50.376Z,1012.69
2022-10-30T05:02:50.301Z,1012.71
2022-10-30T05:03:53.666Z,1012.71
2022-10-30T05:04:50.327Z,1012.68
2022-10-30T05:05:50.344Z,1012.73
2022-10-30T05:06:50.359Z,1012.84
2022-10-30T05:07:50.381Z,1012.87
2022-10-30T05:08:50.394Z,1012.83
2022-10-30T05:09:50.413Z,1012.78
2022-10-30T05:10:50.427Z,1012.80
2022-10-30T05:11:50.444Z,1012.82
2022-10-30T05:12:50.463Z,1012.80
2022-10-30T05:13:50.477Z,1012.80
2022-10-30T05:14:50.493Z,1012.75
2022-10-30T05:15:50.511Z,1012.72
2022-10-30T05:16:50.532Z,1012.68
2022-10-30T05:17:50.546Z,1012.71
2022-10-30T05:18:50.562Z,1012.69
2022-10-30T05:19:50.578Z,1012.67
2022-10-30T05:20:50.601Z,1012.65
2022-10-30T05:21:50.611Z,1012.66
2022-10-30T05:22:50.629Z,1012.66
2022-10-30T05:23:50.648Z,1012.61
2022-10-30T05:24:50.661Z,1012.53
2022-10-30T05:25:50.678Z,1012.49
2022-10-30T05:26:50.695Z,1012.52
2022-10-30T05:27:50.711Z,1012.50
2022-10-30T05:28:50.731Z,1012.53
2022-10-30T05:29:50.745Z,1012.45
2022-10-30T05:30:50.764Z,1012.41
2022-10-30T05:31:50.780Z,1012.36
2022-10-30T05:32:50.798Z,1012.32
2022-10-30T05:33:50.812Z,1012.26
2022-10-30T05:34:50.831Z,1012.17
2022-10-30T05:35:50.845Z,1012.20
2022-10-30T05:36:50.860Z,1012.19
2022-10-30T05:37:50.928Z,1012.28
2022-10-30T05:38:50.897Z,1012.19
2022-10-30T05:39:50.917Z,1012.08
2022-10-30T05:40:50.929Z,1012.03
2022-10-30T05:41:50.946Z,1012.04
2022-10-30T05:42:50.962Z,1012.41
2022-10-30T05:43:50.981Z,1012.70
2022-10-30T05:45:03.093Z,1012.91
2022-10-30T05:45:51.012Z,1012.83
2022-10-30T05:46:51.057Z,1012.78
2022-10-30T05:47:51.046Z,1012.70
2022-10-30T05:48:51.062Z,1012.71
2022-10-30T05:49:51.081Z,1012.75
2022-10-30T05:50:51.095Z,1012.76
2022-10-30T05:51:51.113Z,1012.56
2022-10-30T05:52:51.131Z,1012.24
2022-10-30T05:53:51.147Z,1012.09
2022-10-30T05:54:51.166Z,1011.81
2022-10-30T05:55:51.180Z,1011.56
2022-10-30T05:56:51.197Z,1011.73
2022-10-30T05:57:51.214Z,1011.93
2022-10-30T05:58:51.230Z,1012.20
2022-10-30T05:59:51.247Z,1012.44
2022-10-30T06:00:51.267Z,1012.53
2022-10-30T06:01:51.283Z,1012.63
2022-10-30T06:02:51.396Z,1012.66
2022-10-30T06:03:51.314Z,1012.68
2022-10-30T06:04:51.330Z,1012.60
2022-10-30T06:05:51.359Z,1012.49
2022-10-30T06:06:51.364Z,1012.33
2022-10-30T06:07:51.388Z,1012.29
2022-10-30T06:08:51.401Z,1012.23
2022-10-30T06:09:51.415Z,1012.22
2022-10-30T06:10:51.433Z,1012.24
2022-10-30T06:11:51.464Z,1012.22
2022-10-30T06:12:51.474Z,1012.30
2022-10-30T06:13:51.480Z,1012.27
2022-10-30T06:14:51.499Z,1012.35
2022-10-30T06:15:51.515Z,1012.35
2022-10-30T06:16:51.534Z,1012.35
2022-10-30T06:17:51.549Z,1012.36
2022-10-30T06:18:51.566Z,1012.36
2022-10-30T06:19:51.583Z,1012.36
2022-10-30T06:20:51.599Z,1012.38
2022-10-30T06:21:51.616Z,1012.38
2022-10-30T06:22:51.635Z,1012.38
2022-10-30T06:23:51.652Z,1012.35
2022-10-30T06:24:51.666Z,1012.28
2022-10-30T06:25:51.684Z,1012.27
2022-10-30T06:26:51.703Z,1012.27
2022-10-30T06:27:51.716Z,1012.24
2022-10-30T06:28:51.735Z,1012.23
2022-10-30T06:29:51.752Z,1012.22
2022-10-30T06:30:51.770Z,1012.19
2022-10-30T06:31:51.786Z,1012.21
2022-10-30T06:32:51.804Z,1012.21
2022-10-30T06:33:51.823Z,1012.19
2022-10-30T06:34:51.837Z,1012.24
2022-10-30T06:35:51.853Z,1012.23
2022-10-30T06:36:51.939Z,1012.20
2022-10-30T06:37:51.888Z,1012.25
2022-10-30T06:38:51.904Z,1012.26
2022-10-30T06:39:51.921Z,1012.30
2022-10-30T06:40:51.939Z,1012.28
2022-10-30T06:41:51.955Z,1012.25
2022-10-30T06:42:51.973Z,1012.23
2022-10-30T06:43:51.995Z,1012.18
2022-10-30T06:44:52.009Z,1012.18
2022-10-30T06:45:52.094Z,1012.17
2022-10-30T06:46:52.044Z,1012.16
2022-10-30T06:47:52.063Z,1012.18
2022-10-30T06:48:52.079Z,1012.19
2022-10-30T06:49:52.093Z,1012.19
2022-10-30T06:50:52.109Z,1012.24
2022-10-30T06:51:52.128Z,1012.29
2022-10-30T06:52:52.148Z,1012.29
2022-10-30T06:53:52.162Z,1012.34
2022-10-30T06:54:52.180Z,1012.35
2022-10-30T06:55:55.148Z,1012.38
2022-10-30T06:56:52.214Z,1012.39
2022-10-30T06:57:52.277Z,1012.44
2022-10-30T06:58:52.254Z,1012.39
2022-10-30T06:59:52.268Z,1012.45
2022-10-30T07:00:52.288Z,1012.41
2022-10-30T07:01:55.656Z,1012.45
2022-10-30T07:02:52.322Z,1012.48
2022-10-30T07:03:52.337Z,1012.47
2022-10-30T07:04:52.352Z,1012.49
2022-10-30T07:05:52.370Z,1012.44
2022-10-30T07:06:52.391Z,1012.45
2022-10-30T07:07:52.404Z,1012.45
2022-10-30T07:08:52.423Z,1012.45
2022-10-30T07:09:52.440Z,1012.45
2022-10-30T07:10:52.462Z,1012.42
2022-10-30T07:11:56.624Z,1012.43
2022-10-30T07:12:52.492Z,1012.47
2022-10-30T07:13:52.509Z,1012.44
2022-10-30T07:14:52.526Z,1012.48
2022-10-30T07:15:52.545Z,1012.45
2022-10-30T07:16:52.562Z,1012.46
2022-10-30T07:17:52.579Z,1012.54
2022-10-30T07:18:52.597Z,1012.52
2022-10-30T07:19:52.613Z,1012.54
2022-10-30T07:20:52.630Z,1012.59
2022-10-30T07:21:52.648Z,1012.58
2022-10-30T07:22:52.665Z,1012.62
2022-10-30T07:23:52.682Z,1012.69
2022-10-30T07:24:52.699Z,1012.77
2022-10-30T07:25:52.717Z,1012.79
2022-10-30T07:26:52.735Z,1012.80
2022-10-30T07:27:52.757Z,1012.78
2022-10-30T07:28:52.768Z,1012.78
2022-10-30T07:29:52.787Z,1012.81
2022-10-30T07:30:52.805Z,1012.82
2022-10-30T07:32:02.786Z,1012.85
2022-10-30T07:32:52.840Z,1012.89
2022-10-30T07:33:52.861Z,1012.86
2022-10-30T07:34:52.875Z,1012.81
2022-10-30T07:35:52.891Z,1012.76
2022-10-30T07:36:52.909Z,1012.77
2022-10-30T07:37:52.928Z,1012.75
2022-10-30T07:38:52.943Z,1012.72
2022-10-30T07:39:52.960Z,1012.76
2022-10-30T07:40:52.981Z,1012.75
2022-10-30T07:41:52.993Z,1012.78
2022-10-30T07:42:53.016Z,1012.79
2022-10-30T07:43:53.032Z,1012.78
2022-10-30T07:44:53.049Z,1012.76
2022-10-30T07:45:53.067Z,1012.76
2022-10-30T07:46:53.086Z,1012.73
2022-10-30T07:47:53.101Z,1012.74
2022-10-30T07:48:53.120Z,1012.74
2022-10-30T07:49:53.142Z,1012.75
2022-10-30T07:50:53.156Z,1012.70
2022-10-30T07:51:53.174Z,1012.63
2022-10-30T07:52:53.201Z,1012.64
2022-10-30T07:53:53.209Z,1012.66
2022-10-30T07:54:53.226Z,1012.74
2022-10-30T07:55:53.246Z,1012.75
2022-10-30T07:56:53.262Z,1012.77
2022-10-30T07:57:53.284Z,1012.74
2022-10-30T07:58:53.310Z,1012.85
2022-10-30T07:59:55.000Z,1012.84
2022-10-30T08:00:53.347Z,1012.81
2022-10-30T08:01:53.507Z,1012.78
2022-10-30T08:02:53.451Z,1012.78
2022-10-30T08:03:53.397Z,1012.82
2022-10-30T08:04:53.404Z,1012.87
2022-10-30T08:05:53.512Z,1012.86
2022-10-30T08:06:53.447Z,1012.83
2022-10-30T08:07:53.463Z,1012.88
2022-10-30T08:08:53.483Z,1012.82
2022-10-30T08:09:53.499Z,1012.77
2022-10-30T08:10:53.518Z,1012.88
2022-10-30T08:11:53.535Z,1012.91
2022-10-30T08:12:53.554Z,1012.84
2022-10-30T08:13:53.572Z,1012.71
2022-10-30T08:14:53.592Z,1012.81
2022-10-30T08:15:53.611Z,1012.96
2022-10-30T08:16:53.631Z,1012.92
2022-10-30T08:17:53.648Z,1012.86
2022-10-30T08:18:53.666Z,1012.86
2022-10-30T08:19:53.685Z,1012.90
2022-10-30T08:20:53.728Z,1012.85
2022-10-30T08:21:56.161Z,1012.83
2022-10-30T08:22:53.742Z,1012.86
2022-10-30T08:23:53.760Z,1012.84
2022-10-30T08:24:53.799Z,1012.86
2022-10-30T08:25:53.801Z,1012.88
2022-10-30T08:26:53.818Z,1012.85
2022-10-30T08:27:53.835Z,1012.88
2022-10-30T08:28:53.855Z,1012.89
2022-10-30T08:29:53.874Z,1012.87
2022-10-30T08:30:53.894Z,1012.89
2022-10-30T08:31:53.912Z,1012.88
2022-10-30T08:32:53.932Z,1012.87
2022-10-30T08:33:53.954Z,1012.89
2022-10-30T08:34:53.975Z,1012.90
2022-10-30T08:35:53.990Z,1012.91
2022-10-30T08:36:54.010Z,1012.90
2022-10-30T08:37:54.030Z,1012.92
2022-10-30T08:38:54.054Z,1012.88
2022-10-30T08:39:54.073Z,1012.94
2022-10-30T08:40:54.090Z,1012.93
2022-10-30T08:41:54.109Z,1012.93
2022-10-30T08:42:54.131Z,1012.95
2022-10-30T08:43:54.150Z,1012.93
2022-10-30T08:44:54.170Z,1012.95
2022-10-30T08:45:54.188Z,1012.88
2022-10-30T08:46:54.212Z,1012.89
2022-10-30T08:47:54.227Z,1012.89
2022-10-30T08:48:54.248Z,1012.92
2022-10-30T08:49:54.268Z,1012.95
2022-10-30T08:50:54.288Z,1012.90
2022-10-30T08:51:54.311Z,1012.89
2022-10-30T08:52:54.864Z,1012.91
2022-10-30T08:53:54.349Z,1012.93
2022-10-30T08:54:54.369Z,1012.94
2022-10-30T08:55:54.389Z,1012.88
2022-10-30T08:56:54.409Z,1012.91
2022-10-30T08:57:54.428Z,1012.94
2022-10-30T08:58:54.450Z,1012.90
2022-10-30T08:59:54.469Z,1012.90
2022-10-30T09:01:00.174Z,1012.95
2022-10-30T09:01:54.585Z,1012.91
2022-10-30T09:02:54.528Z,1012.86
2022-10-30T09:03:54.549Z,1012.87
2022-10-30T09:04:54.607Z,1012.84
2022-10-30T09:05:54.591Z,1012.79
2022-10-30T09:06:54.613Z,1012.83
2022-10-30T09:07:54.631Z,1012.82
2022-10-30T09:08:54.650Z,1012.84
2022-10-30T09:09:54.671Z,1012.87
2022-10-30T09:10:54.692Z,1012.86
2022-10-30T09:11:54.713Z,1012.91
2022-10-30T09:12:54.729Z,1012.92
2022-10-30T09:13:54.752Z,1012.92
2022-10-30T09:14:54.771Z,1012.90
2022-10-30T09:15:54.792Z,1012.80
2022-10-30T09:16:54.810Z,1012.84
2022-10-30T09:17:54.878Z,1012.86
2022-10-30T09:18:54.852Z,1012.86
2022-10-30T09:19:54.872Z,1012.86
2022-10-30T09:20:54.892Z,1012.87
2022-10-30T09:21:54.915Z,1012.81
2022-10-30T09:22:55.001Z,1012.82
2022-10-30T09:23:54.954Z,1012.79
2022-10-30T09:24:54.973Z,1012.81
2022-10-30T09:25:54.995Z,1012.80
2022-10-30T09:26:55.016Z,1012.79
2022-10-30T09:27:55.037Z,1012.75
2022-10-30T09:28:55.062Z,1012.77
2022-10-30T09:29:55.075Z,1012.75
2022-10-30T09:30:55.096Z,1012.70
2022-10-30T09:31:55.115Z,1012.69
2022-10-30T09:32:55.290Z,1012.65
2022-10-30T09:33:55.157Z,1012.65
2022-10-30T09:34:55.177Z,1012.64
2022-10-30T09:35:55.198Z,1012.60
2022-10-30T09:36:55.219Z,1012.60
2022-10-30T09:37:55.300Z,1012.60
2022-10-30T09:38:55.279Z,1012.56
2022-10-30T09:39:55.279Z,1012.58
2022-10-30T09:40:55.298Z,1012.61
2022-10-30T09:41:55.328Z,1012.66
2022-10-30T09:42:55.342Z,1012.59
2022-10-30T09:43:55.359Z,1012.55
2022-10-30T09:45:15.175Z,1012.57
2022-10-30T09:45:55.400Z,1012.62
2022-10-30T09:46:55.421Z,1012.62
2022-10-30T09:47:55.639Z,1012.65
2022-10-30T09:48:55.561Z,1012.70
2022-10-30T09:49:55.483Z,1012.71
2022-10-30T09:50:55.502Z,1012.71
2022-10-30T09:51:55.524Z,1012.69
2022-10-30T09:52:55.717Z,1012.68
2022-10-30T09:53:55.563Z,1012.72
2022-10-30T09:54:55.588Z,1012.76
2022-10-30T09:55:55.603Z,1012.77
2022-10-30T09:57:01.048Z,1012.76
2022-10-30T09:57:55.644Z,1012.78
2022-10-30T09:58:55.666Z,1012.78
2022-10-30T09:59:55.685Z,1012.81
2022-10-30T10:00:57.167Z,1012.80
2022-10-30T10:01:55.822Z,1012.83
2022-10-30T10:02:55.960Z,1012.79
2022-10-30T10:03:55.793Z,1012.82
2022-10-30T10:04:55.788Z,1012.83
2022-10-30T10:05:55.811Z,1012.81
2022-10-30T10:06:55.831Z,1012.87
2022-10-30T10:07:56.062Z,1012.87
2022-10-30T10:08:55.869Z,1012.85
2022-10-30T10:09:55.898Z,1012.83
2022-10-30T10:10:55.908Z,1012.82
2022-10-30T10:11:55.930Z,1012.74
2022-10-30T10:12:58.669Z,1012.76
2022-10-30T10:13:55.972Z,1012.72
2022-10-30T10:14:55.996Z,1012.75
2022-10-30T10:15:56.014Z,1012.74
2022-10-30T10:16:56.034Z,1012.73
2022-10-30T10:17:56.054Z,1012.71
2022-10-30T10:18:56.076Z,1012.71
2022-10-30T10:19:56.095Z,1012.76
2022-10-30T10:20:56.116Z,1012.77
2022-10-30T10:21:56.137Z,1012.78
2022-10-30T10:22:56.404Z,1012.79
2022-10-30T10:23:56.182Z,1012.86
2022-10-30T10:24:56.198Z,1012.88
2022-10-30T10:25:56.219Z,1012.85
2022-10-30T10:26:56.239Z,1012.85
2022-10-30T10:27:56.260Z,1012.86
2022-10-30T10:28:56.281Z,1012.88
2022-10-30T10:29:56.303Z,1012.81
2022-10-30T10:30:56.328Z,1012.79
2022-10-30T10:31:56.344Z,1012.78
2022-10-30T10:32:56.557Z,1012.77
2022-10-30T10:33:57.847Z,1012.79
2022-10-30T10:34:56.411Z,1012.81
2022-10-30T10:35:56.427Z,1012.79
2022-10-30T10:36:56.447Z,1012.83
2022-10-30T10:37:56.845Z,1012.79
2022-10-30T10:38:56.489Z,1012.77
2022-10-30T10:39:56.511Z,1012.81
2022-10-30T10:40:56.532Z,1012.77
2022-10-30T10:41:56.550Z,1012.82
2022-10-30T10:42:56.573Z,1012.85
2022-10-30T10:43:56.595Z,1012.77
2022-10-30T10:44:56.616Z,1012.81
2022-10-30T10:45:56.637Z,1012.73
2022-10-30T10:46:56.664Z,1012.74
2022-10-30T10:47:56.850Z,1012.70
2022-10-30T10:48:56.698Z,1012.70
2022-10-30T10:49:56.719Z,1012.67
2022-10-30T10:50:56.742Z,1012.66
2022-10-30T10:51:56.766Z,1012.60
2022-10-30T10:52:57.146Z,1012.61
2022-10-30T10:53:56.806Z,1012.61
2022-10-30T10:54:56.832Z,1012.62
2022-10-30T10:55:56.852Z,1012.56
2022-10-30T10:56:56.869Z,1012.61
2022-10-30T10:57:56.889Z,1012.60
2022-10-30T10:58:56.921Z,1012.54
2022-10-30T10:59:56.930Z,1012.59
2022-10-30T11:00:57.019Z,1012.57
2022-10-30T11:01:57.101Z,1012.53
2022-10-30T11:02:57.428Z,1012.52
2022-10-30T11:03:57.016Z,1012.50
2022-10-30T11:04:57.038Z,1012.53
2022-10-30T11:05:57.058Z,1012.52
2022-10-30T11:06:57.080Z,1012.52
2022-10-30T11:07:57.382Z,1012.52
2022-10-30T11:08:57.125Z,1012.48
2022-10-30T11:09:57.145Z,1012.49
2022-10-30T11:10:57.166Z,1012.46
2022-10-30T11:11:57.190Z,1012.47
2022-10-30T11:12:57.582Z,1012.47
2022-10-30T11:13:57.228Z,1012.54
2022-10-30T11:14:57.263Z,1012.51
2022-10-30T11:15:57.273Z,1012.49
2022-10-30T11:16:57.294Z,1012.51
2022-10-30T11:17:57.368Z,1012.46
2022-10-30T11:18:57.337Z,1012.50
2022-10-30T11:19:57.358Z,1012.53
2022-10-30T11:20:57.380Z,1012.49
2022-10-30T11:21:57.423Z,1012.55
2022-10-30T11:22:57.738Z,1012.54
2022-10-30T11:23:57.447Z,1012.53
2022-10-30T11:24:57.467Z,1012.50
2022-10-30T11:25:57.489Z,1012.49
2022-10-30T11:26:57.528Z,1012.53
2022-10-30T11:27:57.536Z,1012.58
2022-10-30T11:28:57.551Z,1012.57
2022-10-30T11:29:57.582Z,1012.60
2022-10-30T11:30:57.595Z,1012.56
2022-10-30T11:31:57.615Z,1012.56
2022-10-30T11:32:57.671Z,1012.57
2022-10-30T11:33:57.659Z,1012.55
2022-10-30T11:34:57.679Z,1012.54
2022-10-30T11:35:57.704Z,1012.53
2022-10-30T11:36:57.724Z,1012.53
2022-10-30T11:37:57.746Z,1012.52
2022-10-30T11:38:57.768Z,1012.52
2022-10-30T11:39:57.791Z,1012.52
2022-10-30T11:40:57.811Z,1012.54
2022-10-30T11:41:57.832Z,1012.52
2022-10-30T11:42:58.095Z,1012.52
2022-10-30T11:43:57.877Z,1012.54
2022-10-30T11:44:57.896Z,1012.51
2022-10-30T11:45:57.919Z,1012.54
2022-10-30T11:46:57.943Z,1012.50
2022-10-30T11:48:01.138Z,1012.51
2022-10-30T11:48:57.984Z,1012.48
2022-10-30T11:49:58.008Z,1012.52
2022-10-30T11:50:58.074Z,1012.54
2022-10-30T11:51:58.049Z,1012.52
2022-10-30T11:52:58.070Z,1012.52
2022-10-30T11:53:58.094Z,1012.57
2022-10-30T11:54:58.116Z,1012.55
2022-10-30T11:55:58.137Z,1012.52
2022-10-30T11:56:58.160Z,1012.56
2022-10-30T11:57:58.441Z,1012.56
2022-10-30T11:58:58.205Z,1012.57
2022-10-30T12:00:03.826Z,1012.56
2022-10-30T12:00:58.246Z,1012.55
2022-10-30T12:01:58.367Z,1012.54
2022-10-30T12:02:58.667Z,1012.57
2022-10-30T12:03:58.311Z,1012.49
2022-10-30T12:04:58.334Z,1012.49
2022-10-30T12:05:58.356Z,1012.49
2022-10-30T12:06:58.382Z,1012.43